| time (UTC) | temp C | wind direction | speed KPH | gust KPH | rain 1hr cm | rain 24hr cm | rain mn cm | humidity % | barometer mb |
| 20260509151921 | 10 | 248 | 6.4 | 14.5 | 0.00 | 0.00 | 0.00 | 67 | 1000.4 |
| 20260509151351 | 10 | 248 | 9.7 | 16.1 | 0.00 | 0.00 | 0.00 | 65 | 1000.4 |
| 20260509150852 | 10 | 225 | 8.0 | 16.1 | 0.00 | 0.00 | 0.00 | 67 | 1000.5 |
| 20260509150321 | 11 | 248 | 11.3 | 20.9 | 0.00 | 0.00 | 0.00 | 65 | 1000.4 |
| 20260509145821 | 11 | 248 | 12.9 | 22.5 | 0.00 | 0.00 | 0.00 | 64 | 1000.5 |
| 20260509145321 | 11 | 248 | 11.3 | 25.7 | 0.00 | 0.00 | 0.00 | 65 | 1000.2 |
| 20260509144751 | 11 | 248 | 14.5 | 24.1 | 0.00 | 0.00 | 0.00 | 65 | 1000.0 |
| 20260509144251 | 11 | 248 | 14.5 | 24.1 | 0.00 | 0.00 | 0.00 | 64 | 999.8 |
| 20260509143721 | 12 | 248 | 14.5 | 24.1 | 0.00 | 0.00 | 0.00 | 63 | 999.6 |
| 20260509143151 | 12 | 248 | 12.9 | 22.5 | 0.00 | 0.00 | 0.00 | 65 | 999.4 |
| 20260509142651 | 12 | 270 | 12.9 | 22.5 | 0.00 | 0.00 | 0.00 | 65 | 999.0 |
| 20260509142120 | 12 | 248 | 12.9 | 24.1 | 0.00 | 0.00 | 0.00 | 65 | 998.7 |
| 20260509141621 | 12 | 248 | 12.9 | 22.5 | 0.00 | 0.00 | 0.00 | 66 | 998.6 |
| 20260509141120 | 12 | 248 | 11.3 | 22.5 | 0.00 | 0.00 | 0.00 | 66 | 998.2 |
| 20260509140550 | 12 | 248 | 9.7 | 17.7 | 0.00 | 0.00 | 0.00 | 69 | 998.1 |
| 20260509140050 | 12 | 248 | 8.0 | 17.7 | 0.00 | 0.00 | 0.00 | 70 | 998.0 |
| 20260509135550 | 12 | 270 | 11.3 | 22.5 | 0.00 | 0.00 | 0.00 | 70 | 998.0 |
| 20260509135020 | 13 | 248 | 9.7 | 24.1 | 0.00 | 0.00 | 0.00 | 71 | 997.7 |
| 20260509134520 | 13 | 270 | 4.8 | 12.9 | 0.00 | 0.00 | 0.00 | 71 | 997.9 |
| 20260509133950 | 13 | 270 | 6.4 | 14.5 | 0.00 | 0.00 | 0.00 | 71 | 998.0 |
| 20260509133450 | 13 | 270 | 4.8 | 17.7 | 0.00 | 0.00 | 0.00 | 71 | 997.7 |
| 20260509132920 | 13 | 225 | 4.8 | 12.9 | 0.00 | 0.00 | 0.00 | 71 | 997.6 |
| 20260509132421 | 13 | 270 | 4.8 | 12.9 | 0.00 | 0.00 | 0.00 | 71 | 997.4 |
| 20260509131849 | 13 | 270 | 4.8 | 19.3 | 0.00 | 0.00 | 0.00 | 71 | 997.5 |
| 20260509131349 | 13 | 270 | 4.8 | 22.5 | 0.00 | 0.00 | 0.00 | 71 | 997.5 |
| 20260509130819 | 13 | 248 | 6.4 | 22.5 | 0.00 | 0.00 | 0.00 | 71 | 997.4 |
| 20260509130319 | 13 | 248 | 3.2 | 12.9 | 0.00 | 0.00 | 0.00 | 71 | 997.3 |
| 20260509125749 | 13 | 270 | 4.8 | 17.7 | 0.00 | 0.00 | 0.00 | 72 | 997.4 |
| 20260509125253 | 13 | 202 | 4.8 | 14.5 | 0.00 | 0.00 | 0.00 | 72 | 997.4 |
| 20260509124719 | 13 | 270 | 3.2 | 12.9 | 0.00 | 0.00 | 0.00 | 73 | 997.5 |
| 20260509124219 | 13 | 225 | 1.6 | 8.0 | 0.00 | 0.00 | 0.00 | 73 | 997.4 |
| 20260509123719 | 13 | 270 | 1.6 | 8.0 | 0.00 | 0.00 | 0.00 | 73 | 997.5 |
| 20260509123218 | 13 | 0 | 0.0 | 6.4 | 0.00 | 0.00 | 0.00 | 73 | 997.5 |
| 20260509122648 | 12 | 248 | 1.6 | 8.0 | 0.00 | 0.00 | 0.00 | 73 | 997.7 |
| 20260509122148 | 12 | 0 | 0.0 | 3.2 | 0.00 | 0.00 | 0.00 | 73 | 997.6 |
| 20260509121620 | 12 | 22 | 1.6 | 8.0 | 0.00 | 0.00 | 0.00 | 74 | 997.6 |
| 20260509121118 | 12 | 0 | 0.0 | 1.6 | 0.00 | 0.00 | 0.00 | 74 | 997.7 |
| 20260509120618 | 12 | 158 | 1.6 | 12.9 | 0.00 | 0.00 | 0.00 | 74 | 997.7 |
| 20260509120048 | 12 | 0 | 0.0 | 3.2 | 0.00 | 0.00 | 0.00 | 74 | 997.7 |
| 20260509115518 | 11 | 225 | 1.6 | 8.0 | 0.00 | 0.00 | 0.00 | 74 | 997.9 |
| 20260509115018 | 11 | 0 | 0.0 | 3.2 | 0.00 | 0.00 | 0.00 | 73 | 998.0 |
| 20260509114518 | 11 | 135 | 1.6 | 6.4 | 0.00 | 0.00 | 0.00 | 73 | 997.9 |
| 20260509113948 | 11 | 202 | 1.6 | 6.4 | 0.00 | 0.00 | 0.00 | 73 | 997.8 |
| 20260509113449 | 11 | 0 | 0.0 | 3.2 | 0.00 | 0.00 | 0.00 | 73 | 998.0 |
| 20260509112917 | 11 | 0 | 0.0 | 1.6 | 0.00 | 0.00 | 0.00 | 72 | 998.1 |
| 20260509112417 | 11 | 0 | 0.0 | 4.8 | 0.00 | 0.00 | 0.00 | 71 | 998.0 |
| 20260509111848 | 11 | 0 | 0.0 | 4.8 | 0.00 | 0.00 | 0.00 | 71 | 998.1 |
| 20260509111347 | 11 | 0 | 0.0 | 4.8 | 0.00 | 0.00 | 0.00 | 70 | 998.0 |
| 20260509110817 | 11 | 0 | 0.0 | 3.2 | 0.00 | 0.00 | 0.00 | 70 | 997.9 |
| 20260509110317 | 11 | 0 | 0.0 | 1.6 | 0.00 | 0.00 | 0.00 | 69 | 998.2 |
| 20260509105747 | 11 | 0 | 0.0 | 1.6 | 0.00 | 0.00 | 0.00 | 69 | 998.2 |
| 20260509105217 | 11 | 0 | 0.0 | 1.6 | 0.00 | 0.00 | 0.00 | 68 | 998.3 |
| 20260509104647 | 11 | 22 | 1.6 | 4.8 | 0.00 | 0.00 | 0.00 | 68 | 998.4 |
| 20260509104148 | 11 | 0 | 0.0 | 1.6 | 0.00 | 0.00 | 0.00 | 68 | 998.5 |
| 20260509103646 | 11 | 0 | 0.0 | 4.8 | 0.00 | 0.00 | 0.00 | 67 | 998.6 |
| 20260509103116 | 11 | 0 | 0.0 | 1.6 | 0.00 | 0.00 | 0.00 | 67 | 998.6 |
| 20260509102616 | 12 | 0 | 0.0 | 4.8 | 0.00 | 0.00 | 0.00 | 66 | 998.8 |
| 20260509102116 | 12 | 0 | 0.0 | 1.6 | 0.00 | 0.00 | 0.00 | 66 | 998.7 |
| 20260509101546 | 12 | 135 | 1.6 | 8.0 | 0.00 | 0.00 | 0.00 | 65 | 998.6 |
| 20260509101047 | 12 | 135 | 1.6 | 4.8 | 0.00 | 0.00 | 0.00 | 65 | 998.5 |
| 20260509100546 | 12 | 135 | 1.6 | 8.0 | 0.00 | 0.00 | 0.00 | 65 | 998.6 |
| 20260509100016 | 12 | 0 | 0.0 | 3.2 | 0.00 | 0.00 | 0.00 | 66 | 998.8 |
| 20260509095516 | 12 | 0 | 0.0 | 8.0 | 0.00 | 0.00 | 0.00 | 65 | 998.9 |
| 20260509095016 | 12 | 225 | 1.6 | 4.8 | 0.00 | 0.00 | 0.00 | 65 | 999.0 |
| 20260509094446 | 12 | 0 | 0.0 | 4.8 | 0.00 | 0.00 | 0.00 | 64 | 998.6 |
| 20260509093915 | 12 | 135 | 1.6 | 4.8 | 0.00 | 0.00 | 0.00 | 62 | 998.4 |
| 20260509093415 | 11 | 0 | 0.0 | 8.0 | 0.00 | 0.00 | 0.00 | 62 | 998.7 |
| 20260509092915 | 11 | 225 | 1.6 | 8.0 | 0.00 | 0.00 | 0.00 | 61 | 998.8 |
| 20260509092345 | 11 | 0 | 0.0 | 3.2 | 0.00 | 0.00 | 0.00 | 60 | 999.2 |
| 20260509091815 | 11 | 0 | 0.0 | 1.6 | 0.00 | 0.00 | 0.00 | 59 | 999.2 |
| 20260509091315 | 11 | 0 | 0.0 | 1.6 | 0.00 | 0.00 | 0.00 | 58 | 999.1 |
| 20260509090815 | 11 | 0 | 0.0 | 1.6 | 0.00 | 0.00 | 0.00 | 58 | 999.2 |
| 20260509090245 | 11 | 0 | 0.0 | 3.2 | 0.00 | 0.00 | 0.00 | 57 | 999.3 |
| 20260509085745 | 11 | 0 | 0.0 | 6.4 | 0.00 | 0.00 | 0.00 | 58 | 999.5 |
| 20260509085214 | 11 | 0 | 0.0 | 1.6 | 0.00 | 0.00 | 0.00 | 58 | 999.5 |
| 20260509084644 | 11 | 0 | 0.0 | 1.6 | 0.00 | 0.00 | 0.00 | 58 | 999.7 |
| 20260509084144 | 11 | 0 | 0.0 | 3.2 | 0.00 | 0.00 | 0.00 | 58 | 999.7 |
| 20260509083644 | 11 | 0 | 0.0 | 3.2 | 0.00 | 0.00 | 0.00 | 58 | 999.9 |
| 20260509083114 | 11 | 0 | 0.0 | 1.6 | 0.00 | 0.00 | 0.00 | 57 | 1000.1 |
| 20260509082544 | 11 | 0 | 0.0 | 1.6 | 0.00 | 0.00 | 0.00 | 55 | 1000.1 |
| 20260509082044 | 11 | 0 | 0.0 | 1.6 | 0.00 | 0.00 | 0.00 | 54 | 1000.3 |
| 20260509081544 | 11 | 90 | 1.6 | 4.8 | 0.00 | 0.00 | 0.00 | 53 | 1000.1 |
| 20260509081044 | 11 | 0 | 0.0 | 1.6 | 0.00 | 0.00 | 0.00 | 51 | 1000.3 |
| 20260509080513 | 11 | 0 | 0.0 | 6.4 | 0.00 | 0.00 | 0.00 | 48 | 1000.2 |
| 20260509080013 | 11 | 0 | 0.0 | 1.6 | 0.00 | 0.00 | 0.00 | 46 | 1000.3 |
| 20260509075443 | 11 | 0 | 0.0 | 3.2 | 0.00 | 0.00 | 0.00 | 45 | 1000.3 |
| 20260509074943 | 11 | 0 | 0.0 | 3.2 | 0.00 | 0.00 | 0.00 | 44 | 1000.4 |
| 20260509074414 | 11 | 0 | 0.0 | 1.6 | 0.00 | 0.00 | 0.00 | 42 | 1000.5 |
| 20260509073913 | 11 | 0 | 0.0 | 0.0 | 0.00 | 0.00 | 0.00 | 41 | 1000.5 |
| 20260509073343 | 11 | 0 | 0.0 | 1.6 | 0.00 | 0.00 | 0.00 | 40 | 1000.7 |
| 20260509072813 | 11 | 0 | 0.0 | 1.6 | 0.00 | 0.00 | 0.00 | 40 | 1000.9 |
| 20260509072313 | 12 | 0 | 0.0 | 3.2 | 0.00 | 0.00 | 0.00 | 39 | 1001.0 |
| 20260509071743 | 12 | 0 | 0.0 | 6.4 | 0.00 | 0.00 | 0.00 | 39 | 1001.3 |
| 20260509071212 | 12 | 0 | 0.0 | 1.6 | 0.00 | 0.00 | 0.00 | 39 | 1001.3 |
| 20260509070712 | 12 | 0 | 0.0 | 1.6 | 0.00 | 0.00 | 0.00 | 38 | 1001.5 |
| 20260509070142 | 12 | 0 | 0.0 | 8.0 | 0.00 | 0.00 | 0.00 | 37 | 1001.5 |
| 20260509065612 | 12 | 0 | 0.0 | 3.2 | 0.00 | 0.00 | 0.00 | 37 | 1001.6 |
| 20260509065112 | 12 | 248 | 1.6 | 4.8 | 0.00 | 0.00 | 0.00 | 39 | 1001.7 |
| 20260509064542 | 12 | 0 | 0.0 | 1.6 | 0.00 | 0.00 | 0.00 | 40 | 1001.9 |
| 20260509064042 | 12 | 0 | 0.0 | 3.2 | 0.00 | 0.00 | 0.00 | 41 | 1001.8 |
| 20260509063542 | 12 | 0 | 0.0 | 1.6 | 0.00 | 0.00 | 0.00 | 41 | 1002.0 |
| 20260509063042 | 12 | 0 | 0.0 | 1.6 | 0.00 | 0.00 | 0.00 | 41 | 1002.2 |
| 20260509062541 | 12 | 0 | 0.0 | 1.6 | 0.00 | 0.00 | 0.00 | 41 | 1002.4 |
| 20260509062011 | 12 | 0 | 0.0 | 1.6 | 0.00 | 0.00 | 0.00 | 41 | 1002.4 |
| 20260509061511 | 12 | 0 | 0.0 | 1.6 | 0.00 | 0.00 | 0.00 | 41 | 1002.4 |
| 20260509060941 | 12 | 0 | 0.0 | 1.6 | 0.00 | 0.00 | 0.00 | 41 | 1002.5 |
| 20260509060441 | 12 | 0 | 0.0 | 1.6 | 0.00 | 0.00 | 0.00 | 40 | 1002.4 |
| 20260509055911 | 12 | 0 | 0.0 | 4.8 | 0.00 | 0.00 | 0.00 | 39 | 1002.4 |
| 20260509055411 | 12 | 0 | 0.0 | 4.8 | 0.00 | 0.00 | 0.00 | 39 | 1002.3 |
| 20260509054911 | 12 | 0 | 0.0 | 3.2 | 0.00 | 0.00 | 0.00 | 39 | 1002.3 |
| 20260509054411 | 12 | 0 | 0.0 | 1.6 | 0.00 | 0.00 | 0.00 | 38 | 1002.3 |
| 20260509053911 | 12 | 0 | 0.0 | 4.8 | 0.00 | 0.00 | 0.00 | 39 | 1002.5 |
| 20260509053341 | 12 | 0 | 0.0 | 1.6 | 0.00 | 0.00 | 0.00 | 40 | 1002.5 |
| 20260509052840 | 12 | 0 | 0.0 | 3.2 | 0.00 | 0.00 | 0.00 | 40 | 1002.6 |
| 20260509052310 | 12 | 0 | 0.0 | 0.0 | 0.00 | 0.00 | 0.00 | 41 | 1002.7 |
| 20260509051810 | 12 | 0 | 0.0 | 0.0 | 0.00 | 0.00 | 0.00 | 41 | 1002.7 |
| 20260509051311 | 12 | 0 | 0.0 | 0.0 | 0.00 | 0.00 | 0.00 | 41 | 1002.8 |
| 20260509050810 | 12 | 0 | 0.0 | 1.6 | 0.00 | 0.00 | 0.00 | 40 | 1002.8 |
| 20260509050310 | 12 | 0 | 0.0 | 1.6 | 0.00 | 0.00 | 0.00 | 40 | 1003.0 |
| 20260509045740 | 12 | 0 | 0.0 | 1.6 | 0.00 | 0.00 | 0.00 | 40 | 1003.1 |
| 20260509045210 | 12 | 0 | 0.0 | 1.6 | 0.00 | 0.00 | 0.00 | 40 | 1003.3 |
| 20260509044709 | 12 | 0 | 0.0 | 3.2 | 0.00 | 0.00 | 0.00 | 41 | 1003.3 |
| 20260509044209 | 13 | 0 | 0.0 | 1.6 | 0.00 | 0.00 | 0.00 | 41 | 1003.4 |
| 20260509043709 | 13 | 0 | 0.0 | 1.6 | 0.00 | 0.00 | 0.00 | 40 | 1003.4 |
| 20260509043139 | 13 | 0 | 0.0 | 3.2 | 0.00 | 0.00 | 0.00 | 41 | 1003.5 |
| 20260509042609 | 13 | 248 | 4.8 | 8.0 | 0.00 | 0.00 | 0.00 | 40 | 1003.8 |
| 20260509042109 | 12 | 270 | 1.6 | 8.0 | 0.00 | 0.00 | 0.00 | 41 | 1003.9 |
| 20260509041609 | 12 | 0 | 0.0 | 3.2 | 0.00 | 0.00 | 0.00 | 43 | 1003.9 |
| 20260509041109 | 12 | 0 | 0.0 | 3.2 | 0.00 | 0.00 | 0.00 | 42 | 1003.8 |
| 20260509040539 | 12 | 0 | 0.0 | 1.6 | 0.00 | 0.00 | 0.00 | 43 | 1003.9 |
| 20260509040038 | 12 | 0 | 0.0 | 1.6 | 0.00 | 0.00 | 0.00 | 44 | 1003.9 |
| 20260509035538 | 12 | 0 | 0.0 | 1.6 | 0.00 | 0.00 | 0.00 | 43 | 1004.1 |
| 20260509035008 | 12 | 0 | 0.0 | 1.6 | 0.00 | 0.00 | 0.00 | 43 | 1004.0 |
| 20260509034508 | 12 | 0 | 0.0 | 1.6 | 0.00 | 0.00 | 0.00 | 43 | 1004.1 |
| 20260509034008 | 12 | 0 | 0.0 | 1.6 | 0.00 | 0.00 | 0.00 | 43 | 1004.0 |
| 20260509033438 | 12 | 0 | 0.0 | 1.6 | 0.00 | 0.00 | 0.00 | 42 | 1004.0 |
| 20260509032938 | 12 | 0 | 0.0 | 0.0 | 0.00 | 0.00 | 0.00 | 43 | 1004.1 |
| 20260509032408 | 12 | 0 | 0.0 | 0.0 | 0.00 | 0.00 | 0.00 | 43 | 1004.1 |
| 20260509031908 | 11 | 0 | 0.0 | 1.6 | 0.00 | 0.00 | 0.00 | 44 | 1004.1 |
| 20260509031338 | 11 | 0 | 0.0 | 0.0 | 0.00 | 0.00 | 0.00 | 44 | 1004.0 |
| 20260509030808 | 11 | 0 | 0.0 | 0.0 | 0.00 | 0.00 | 0.00 | 44 | 1004.1 |
| 20260509030307 | 11 | 0 | 0.0 | 0.0 | 0.00 | 0.00 | 0.00 | 43 | 1004.2 |
| 20260509025738 | 11 | 0 | 0.0 | 0.0 | 0.00 | 0.00 | 0.00 | 44 | 1004.3 |
| 20260509025207 | 11 | 0 | 0.0 | 0.0 | 0.00 | 0.00 | 0.00 | 44 | 1004.3 |
| 20260509024707 | 11 | 0 | 0.0 | 0.0 | 0.00 | 0.00 | 0.00 | 44 | 1004.3 |
| 20260509024137 | 11 | 0 | 0.0 | 0.0 | 0.00 | 0.00 | 0.00 | 45 | 1004.3 |
| 20260509023637 | 11 | 0 | 0.0 | 1.6 | 0.00 | 0.00 | 0.00 | 45 | 1004.3 |
| 20260509023137 | 11 | 0 | 0.0 | 0.0 | 0.00 | 0.00 | 0.00 | 45 | 1004.3 |
| 20260509022607 | 11 | 0 | 0.0 | 0.0 | 0.00 | 0.00 | 0.00 | 44 | 1004.3 |
| 20260509022107 | 11 | 0 | 0.0 | 0.0 | 0.00 | 0.00 | 0.00 | 44 | 1004.5 |
| 20260509021607 | 12 | 0 | 0.0 | 0.0 | 0.00 | 0.00 | 0.00 | 44 | 1004.4 |
| 20260509021037 | 12 | 0 | 0.0 | 0.0 | 0.00 | 0.00 | 0.00 | 43 | 1004.4 |
| 20260509020536 | 12 | 0 | 0.0 | 0.0 | 0.00 | 0.00 | 0.00 | 41 | 1004.5 |
| 20260509020006 | 13 | 0 | 0.0 | 1.6 | 0.00 | 0.00 | 0.00 | 40 | 1004.5 |
| 20260509015506 | 13 | 0 | 0.0 | 0.0 | 0.00 | 0.00 | 0.00 | 39 | 1004.4 |
| 20260509014936 | 13 | 0 | 0.0 | 0.0 | 0.00 | 0.00 | 0.00 | 40 | 1004.5 |
| 20260509014436 | 13 | 0 | 0.0 | 1.6 | 0.00 | 0.00 | 0.00 | 40 | 1004.5 |
| 20260509013906 | 13 | 0 | 0.0 | 0.0 | 0.00 | 0.00 | 0.00 | 39 | 1004.5 |
| 20260509013406 | 13 | 0 | 0.0 | 1.6 | 0.00 | 0.00 | 0.00 | 38 | 1004.6 |
| 20260509012906 | 14 | 0 | 0.0 | 1.6 | 0.00 | 0.00 | 0.00 | 38 | 1004.5 |
| 20260509012336 | 14 | 0 | 0.0 | 0.0 | 0.00 | 0.00 | 0.00 | 37 | 1004.5 |
| 20260509011806 | 14 | 0 | 0.0 | 3.2 | 0.00 | 0.00 | 0.00 | 37 | 1004.5 |
| 20260509011306 | 14 | 0 | 0.0 | 3.2 | 0.00 | 0.00 | 0.00 | 37 | 1004.4 |
| 20260509010735 | 14 | 0 | 0.0 | 3.2 | 0.00 | 0.00 | 0.00 | 37 | 1004.4 |
| 20260509010205 | 14 | 0 | 0.0 | 3.2 | 0.00 | 0.00 | 0.00 | 37 | 1004.3 |
| 20260509005706 | 15 | 0 | 0.0 | 1.6 | 0.00 | 0.00 | 0.00 | 36 | 1004.5 |
| 20260509005135 | 15 | 0 | 0.0 | 3.2 | 0.00 | 0.00 | 0.00 | 36 | 1004.3 |
| 20260509004635 | 15 | 0 | 0.0 | 4.8 | 0.00 | 0.00 | 0.00 | 36 | 1004.3 |
| 20260509004105 | 15 | 0 | 0.0 | 6.4 | 0.00 | 0.00 | 0.00 | 36 | 1004.3 |
| 20260509003605 | 15 | 0 | 0.0 | 3.2 | 0.00 | 0.00 | 0.00 | 35 | 1004.3 |
| 20260509003105 | 15 | 0 | 0.0 | 0.0 | 0.00 | 0.00 | 0.00 | 35 | 1004.4 |
| 20260509002605 | 15 | 248 | 1.6 | 9.7 | 0.00 | 0.00 | 0.00 | 35 | 1004.3 |
| 20260509002035 | 15 | 270 | 3.2 | 11.3 | 0.00 | 0.00 | 0.00 | 34 | 1004.4 |
| 20260509001534 | 15 | 270 | 3.2 | 6.4 | 0.00 | 0.00 | 0.00 | 34 | 1004.5 |
| 20260509001034 | 15 | 270 | 1.6 | 6.4 | 0.00 | 0.00 | 0.00 | 34 | 1004.4 |
| 20260509000504 | 15 | 248 | 3.2 | 6.4 | 0.00 | 0.00 | 0.00 | 34 | 1004.5 |
| 20260509000004 | 16 | 270 | 1.6 | 4.8 | 0.00 | 0.00 | 0.00 | 34 | 1004.6 |
| 20260508235434 | 16 | 248 | 3.2 | 9.7 | 0.00 | 0.00 | 0.00 | 33 | 1004.5 |
| 20260508234934 | 16 | 248 | 6.4 | 12.9 | 0.00 | 0.00 | 0.00 | 33 | 1004.6 |
| 20260508234404 | 16 | 248 | 4.8 | 11.3 | 0.00 | 0.00 | 0.00 | 34 | 1004.6 |
| 20260508233904 | 16 | 248 | 1.6 | 8.0 | 0.00 | 0.00 | 0.00 | 33 | 1004.7 |
| 20260508233333 | 16 | 248 | 6.4 | 14.5 | 0.00 | 0.00 | 0.00 | 33 | 1004.7 |
| 20260508232803 | 16 | 270 | 4.8 | 11.3 | 0.00 | 0.00 | 0.00 | 33 | 1004.7 |
| 20260508232233 | 16 | 270 | 1.6 | 6.4 | 0.00 | 0.00 | 0.00 | 33 | 1004.7 |
| 20260508231704 | 16 | 248 | 6.4 | 19.3 | 0.00 | 0.00 | 0.00 | 33 | 1004.6 |
| 20260508231203 | 16 | 270 | 6.4 | 16.1 | 0.00 | 0.00 | 0.00 | 32 | 1004.6 |
| 20260508230633 | 16 | 248 | 4.8 | 12.9 | 0.00 | 0.00 | 0.00 | 32 | 1004.6 |
| 20260508230133 | 16 | 248 | 6.4 | 12.9 | 0.00 | 0.00 | 0.00 | 33 | 1004.5 |
| 20260508225603 | 16 | 248 | 6.4 | 14.5 | 0.00 | 0.00 | 0.00 | 32 | 1004.6 |
| 20260508225103 | 16 | 225 | 6.4 | 12.9 | 0.00 | 0.00 | 0.00 | 32 | 1004.7 |
| 20260508224603 | 17 | 248 | 8.0 | 14.5 | 0.00 | 0.00 | 0.00 | 30 | 1004.7 |
| 20260508224103 | 17 | 248 | 6.4 | 12.9 | 0.00 | 0.00 | 0.00 | 30 | 1004.6 |
| 20260508223533 | 17 | 248 | 8.0 | 19.3 | 0.00 | 0.00 | 0.00 | 30 | 1004.6 |
| 20260508223032 | 17 | 248 | 8.0 | 14.5 | 0.00 | 0.00 | 0.00 | 30 | 1004.7 |
| 20260508222532 | 17 | 248 | 9.7 | 19.3 | 0.00 | 0.00 | 0.00 | 30 | 1004.7 |
| 20260508222002 | 17 | 248 | 9.7 | 16.1 | 0.00 | 0.00 | 0.00 | 31 | 1004.8 |
| 20260508221502 | 17 | 248 | 8.0 | 16.1 | 0.00 | 0.00 | 0.00 | 30 | 1004.8 |
| 20260508221002 | 17 | 248 | 9.7 | 22.5 | 0.00 | 0.00 | 0.00 | 30 | 1004.7 |
| 20260508220432 | 17 | 248 | 6.4 | 16.1 | 0.00 | 0.00 | 0.00 | 31 | 1005.0 |
| 20260508215932 | 17 | 248 | 6.4 | 16.1 | 0.00 | 0.00 | 0.00 | 31 | 1004.9 |
| 20260508215402 | 17 | 248 | 8.0 | 16.1 | 0.00 | 0.00 | 0.00 | 30 | 1005.0 |
| 20260508214902 | 17 | 248 | 8.0 | 16.1 | 0.00 | 0.00 | 0.00 | 31 | 1005.0 |
| 20260508214332 | 17 | 248 | 9.7 | 19.3 | 0.00 | 0.00 | 0.00 | 30 | 1005.0 |
| 20260508213801 | 17 | 248 | 9.7 | 19.3 | 0.00 | 0.00 | 0.00 | 30 | 1005.0 |
| 20260508213301 | 17 | 248 | 11.3 | 24.1 | 0.00 | 0.00 | 0.00 | 29 | 1005.0 |
| 20260508212731 | 17 | 248 | 6.4 | 16.1 | 0.00 | 0.00 | 0.00 | 29 | 1005.0 |
| 20260508212201 | 17 | 248 | 8.0 | 14.5 | 0.00 | 0.00 | 0.00 | 30 | 1005.0 |
| 20260508211701 | 17 | 248 | 8.0 | 20.9 | 0.00 | 0.00 | 0.00 | 30 | 1005.1 |
| 20260508211131 | 17 | 248 | 11.3 | 22.5 | 0.00 | 0.00 | 0.00 | 29 | 1005.1 |
| 20260508210631 | 17 | 270 | 8.0 | 19.3 | 0.00 | 0.00 | 0.00 | 29 | 1005.2 |
| 20260508210131 | 17 | 248 | 8.0 | 16.1 | 0.00 | 0.00 | 0.00 | 31 | 1005.2 |
| 20260508205601 | 17 | 248 | 9.7 | 17.7 | 0.00 | 0.00 | 0.00 | 30 | 1005.4 |
| 20260508205101 | 16 | 248 | 9.7 | 19.3 | 0.00 | 0.00 | 0.00 | 30 | 1005.5 |
| 20260508204601 | 17 | 248 | 4.8 | 11.3 | 0.00 | 0.00 | 0.00 | 31 | 1005.5 |
| 20260508204030 | 16 | 248 | 8.0 | 14.5 | 0.00 | 0.00 | 0.00 | 32 | 1005.8 |
| 20260508203500 | 16 | 248 | 8.0 | 17.7 | 0.00 | 0.00 | 0.00 | 30 | 1005.8 |
| 20260508203000 | 16 | 248 | 8.0 | 19.3 | 0.00 | 0.00 | 0.00 | 31 | 1005.8 |
| 20260508202430 | 16 | 248 | 12.9 | 24.1 | 0.00 | 0.00 | 0.00 | 29 | 1005.8 |
| 20260508201931 | 17 | 248 | 11.3 | 25.7 | 0.00 | 0.00 | 0.00 | 30 | 1005.9 |
| 20260508201400 | 17 | 248 | 11.3 | 25.7 | 0.00 | 0.00 | 0.00 | 29 | 1005.9 |
| 20260508200900 | 17 | 248 | 9.7 | 24.1 | 0.00 | 0.00 | 0.00 | 30 | 1006.1 |
| 20260508200330 | 17 | 248 | 11.3 | 20.9 | 0.00 | 0.00 | 0.00 | 29 | 1006.1 |
| 20260508195830 | 16 | 248 | 11.3 | 24.1 | 0.00 | 0.00 | 0.00 | 29 | 1006.1 |
| 20260508195305 | 17 | 248 | 11.3 | 20.9 | 0.00 | 0.00 | 0.00 | 29 | 1006.3 |
| 20260508194759 | 17 | 270 | 6.4 | 14.5 | 0.00 | 0.00 | 0.00 | 30 | 1006.4 |
| 20260508194229 | 16 | 248 | 9.7 | 22.5 | 0.00 | 0.00 | 0.00 | 30 | 1006.4 |
| 20260508193659 | 16 | 270 | 9.7 | 27.4 | 0.00 | 0.00 | 0.00 | 29 | 1006.5 |
| 20260508193159 | 16 | 248 | 9.7 | 20.9 | 0.00 | 0.00 | 0.00 | 30 | 1006.5 |
| 20260508192659 | 16 | 270 | 9.7 | 27.4 | 0.00 | 0.00 | 0.00 | 31 | 1006.6 |
| 20260508192129 | 16 | 270 | 9.7 | 20.9 | 0.00 | 0.00 | 0.00 | 30 | 1006.6 |
| 20260508191629 | 16 | 248 | 8.0 | 19.3 | 0.00 | 0.00 | 0.00 | 28 | 1006.8 |
| 20260508191129 | 16 | 248 | 8.0 | 19.3 | 0.00 | 0.00 | 0.00 | 30 | 1006.7 |
| 20260508190558 | 16 | 248 | 11.3 | 19.3 | 0.00 | 0.00 | 0.00 | 30 | 1006.8 |
| 20260508190059 | 16 | 248 | 9.7 | 22.5 | 0.00 | 0.00 | 0.00 | 29 | 1006.9 |
| 20260508185529 | 16 | 248 | 12.9 | 24.1 | 0.00 | 0.00 | 0.00 | 29 | 1006.9 |
| 20260508184958 | 16 | 225 | 11.3 | 20.9 | 0.00 | 0.00 | 0.00 | 30 | 1007.0 |
| 20260508184458 | 16 | 248 | 11.3 | 19.3 | 0.00 | 0.00 | 0.00 | 30 | 1007.0 |
| 20260508183958 | 16 | 248 | 11.3 | 22.5 | 0.00 | 0.00 | 0.00 | 30 | 1007.2 |
| 20260508183458 | 16 | 248 | 12.9 | 24.1 | 0.00 | 0.00 | 0.00 | 30 | 1007.3 |
| 20260508182928 | 16 | 248 | 9.7 | 24.1 | 0.00 | 0.00 | 0.00 | 32 | 1007.3 |
| 20260508182358 | 16 | 270 | 11.3 | 24.1 | 0.00 | 0.00 | 0.00 | 30 | 1007.3 |
| 20260508181858 | 15 | 248 | 12.9 | 22.5 | 0.00 | 0.00 | 0.00 | 32 | 1007.4 |
| 20260508181327 | 16 | 248 | 9.7 | 17.7 | 0.00 | 0.00 | 0.00 | 30 | 1007.4 |
| 20260508180757 | 16 | 248 | 9.7 | 20.9 | 0.00 | 0.00 | 0.00 | 30 | 1007.6 |
| 20260508180258 | 16 | 248 | 9.7 | 20.9 | 0.00 | 0.00 | 0.00 | 30 | 1007.4 |
| 20260508175727 | 15 | 248 | 12.9 | 20.9 | 0.00 | 0.00 | 0.00 | 31 | 1007.6 |
| 20260508175157 | 15 | 270 | 12.9 | 25.7 | 0.00 | 0.00 | 0.00 | 31 | 1007.7 |
| 20260508174657 | 15 | 248 | 11.3 | 20.9 | 0.00 | 0.00 | 0.00 | 30 | 1007.7 |
| 20260508174158 | 15 | 248 | 11.3 | 24.1 | 0.00 | 0.00 | 0.00 | 30 | 1007.8 |
| 20260508173627 | 15 | 248 | 11.3 | 20.9 | 0.00 | 0.00 | 0.00 | 30 | 1007.8 |
| 20260508173057 | 15 | 248 | 11.3 | 20.9 | 0.00 | 0.00 | 0.00 | 30 | 1008.0 |
| 20260508172556 | 15 | 248 | 11.3 | 22.5 | 0.00 | 0.00 | 0.00 | 31 | 1008.0 |
| 20260508172027 | 15 | 248 | 11.3 | 25.7 | 0.00 | 0.00 | 0.00 | 31 | 1008.0 |
| 20260508171456 | 15 | 248 | 11.3 | 22.5 | 0.00 | 0.00 | 0.00 | 32 | 1008.1 |
| 20260508170956 | 15 | 270 | 9.7 | 24.1 | 0.00 | 0.00 | 0.00 | 32 | 1008.1 |
| 20260508170457 | 15 | 248 | 11.3 | 24.1 | 0.00 | 0.00 | 0.00 | 31 | 1008.2 |
| 20260508165926 | 15 | 248 | 12.9 | 24.1 | 0.00 | 0.00 | 0.00 | 33 | 1008.2 |
| 20260508165426 | 15 | 248 | 12.9 | 22.5 | 0.00 | 0.00 | 0.00 | 32 | 1008.2 |
| 20260508164856 | 15 | 248 | 14.5 | 25.7 | 0.00 | 0.00 | 0.00 | 32 | 1008.4 |
| 20260508164356 | 15 | 248 | 11.3 | 19.3 | 0.00 | 0.00 | 0.00 | 34 | 1008.5 |
| 20260508163826 | 15 | 270 | 9.7 | 22.5 | 0.00 | 0.00 | 0.00 | 33 | 1008.5 |
| 20260508163326 | 15 | 248 | 9.7 | 19.3 | 0.00 | 0.00 | 0.00 | 33 | 1008.5 |
| 20260508162826 | 15 | 270 | 8.0 | 16.1 | 0.00 | 0.00 | 0.00 | 35 | 1008.5 |
| 20260508162255 | 15 | 248 | 9.7 | 20.9 | 0.00 | 0.00 | 0.00 | 33 | 1008.6 |
| 20260508161755 | 14 | 248 | 9.7 | 19.3 | 0.00 | 0.00 | 0.00 | 34 | 1008.5 |
| 20260508161225 | 14 | 248 | 9.7 | 20.9 | 0.00 | 0.00 | 0.00 | 35 | 1008.6 |
| 20260508160655 | 14 | 248 | 11.3 | 20.9 | 0.00 | 0.00 | 0.00 | 35 | 1008.7 |
| 20260508160155 | 14 | 248 | 11.3 | 22.5 | 0.00 | 0.00 | 0.00 | 35 | 1008.7 |
| 20260508155625 | 14 | 248 | 11.3 | 19.3 | 0.00 | 0.00 | 0.00 | 36 | 1008.8 |
| 20260508155055 | 14 | 248 | 9.7 | 19.3 | 0.00 | 0.00 | 0.00 | 35 | 1008.9 |
| 20260508154555 | 14 | 248 | 11.3 | 17.7 | 0.00 | 0.00 | 0.00 | 35 | 1008.9 |
| 20260508154025 | 14 | 248 | 11.3 | 20.9 | 0.00 | 0.00 | 0.00 | 35 | 1008.9 |
| 20260508153524 | 13 | 248 | 11.3 | 20.9 | 0.00 | 0.00 | 0.00 | 38 | 1008.9 |
| 20260508152954 | 13 | 248 | 11.3 | 22.5 | 0.00 | 0.00 | 0.00 | 38 | 1009.0 |
| 20260508152454 | 13 | 248 | 9.7 | 19.3 | 0.00 | 0.00 | 0.00 | 41 | 1009.0 |
| 20260508151954 | 13 | 248 | 9.7 | 17.7 | 0.00 | 0.00 | 0.00 | 40 | 1008.9 |